Shaftsburg, Michigan
Current Conditions -  °F | °C
As of 2:53 AM on Friday 19 Dec 2014 (Local Time) from KLAN Reporting Station
Overcast Overcast  
Wind Chill: -6°   Ceiling: 1200
Heat Index: -3°   Visibility: 10mi
Dew Point: -4°   Wind: 5mph
Humidity: 89%   Direction: 10°N
Pressure: 30.22"   Gusts: NA
Location:  42.8°N, 84.29°W
Report Text: KLAN 190753Z 01004KT 10SM OVC012 M03/M04 A3022 RMK AO2 SLP244 T10281044
Loading
Personal Weather Stations






























Interactive Weather Map New forecast layout! Learn more

10-Day Weather Forecast

Advertisements
Track Severe Weather on mobile